sensor_id;sensor_type;location;lat;lon;timestamp;P1;durP1;ratioP1;P2;durP2;ratioP2
20743;SDS011;56303;52.160;-0.428;2022-12-04T00:00:01;8.97;;;4.77;;
20743;SDS011;56303;52.160;-0.428;2022-12-04T00:02:34;9.10;;;5.13;;
20743;SDS011;56303;52.160;-0.428;2022-12-04T00:05:02;7.83;;;4.77;;
20743;SDS011;56303;52.160;-0.428;2022-12-04T00:07:30;8.80;;;5.00;;
20743;SDS011;56303;52.160;-0.428;2022-12-04T00:09:57;10.17;;;5.67;;
20743;SDS011;56303;52.160;-0.428;2022-12-04T00:12:24;13.60;;;6.03;;
20743;SDS011;56303;52.160;-0.428;2022-12-04T00:14:51;8.90;;;6.00;;
20743;SDS011;56303;52.160;-0.428;2022-12-04T00:17:39;12.30;;;5.70;;
20743;SDS011;56303;52.160;-0.428;2022-12-04T00:20:08;8.87;;;5.47;;
20743;SDS011;56303;52.160;-0.428;2022-12-04T00:22:41;10.83;;;5.73;;
20743;SDS011;56303;52.160;-0.428;2022-12-04T00:25:08;9.27;;;5.37;;
20743;SDS011;56303;52.160;-0.428;2022-12-04T00:27:35;11.23;;;5.93;;
20743;SDS011;56303;52.160;-0.428;2022-12-04T00:30:02;8.30;;;5.07;;
20743;SDS011;56303;52.160;-0.428;2022-12-04T00:32:29;9.47;;;5.90;;
20743;SDS011;56303;52.160;-0.428;2022-12-04T00:34:56;9.70;;;5.53;;
20743;SDS011;56303;52.160;-0.428;2022-12-04T00:37:23;10.87;;;5.67;;
20743;SDS011;56303;52.160;-0.428;2022-12-04T00:39:49;10.67;;;6.60;;
20743;SDS011;56303;52.160;-0.428;2022-12-04T00:42:16;10.20;;;6.40;;
20743;SDS011;56303;52.160;-0.428;2022-12-04T00:44:43;9.37;;;4.97;;
20743;SDS011;56303;52.160;-0.428;2022-12-04T00:47:10;10.97;;;6.17;;
20743;SDS011;56303;52.160;-0.428;2022-12-04T00:49:37;11.37;;;5.63;;
20743;SDS011;56303;52.160;-0.428;2022-12-04T00:52:03;11.30;;;5.67;;
20743;SDS011;56303;52.160;-0.428;2022-12-04T00:54:30;9.70;;;5.50;;
20743;SDS011;56303;52.160;-0.428;2022-12-04T00:56:57;7.43;;;5.10;;
20743;SDS011;56303;52.160;-0.428;2022-12-04T00:59:24;11.50;;;6.20;;
20743;SDS011;56303;52.160;-0.428;2022-12-04T01:01:51;11.77;;;5.40;;
20743;SDS011;56303;52.160;-0.428;2022-12-04T01:04:17;10.80;;;5.90;;
20743;SDS011;56303;52.160;-0.428;2022-12-04T01:06:45;12.73;;;5.93;;
20743;SDS011;56303;52.160;-0.428;2022-12-04T01:09:11;10.90;;;6.00;;
20743;SDS011;56303;52.160;-0.428;2022-12-04T01:11:38;12.23;;;6.03;;
20743;SDS011;56303;52.160;-0.428;2022-12-04T01:14:05;11.03;;;5.37;;
20743;SDS011;56303;52.160;-0.428;2022-12-04T01:16:33;10.87;;;5.63;;
20743;SDS011;56303;52.160;-0.428;2022-12-04T01:19:02;9.83;;;5.60;;
20743;SDS011;56303;52.160;-0.428;2022-12-04T01:21:30;11.53;;;5.77;;
20743;SDS011;56303;52.160;-0.428;2022-12-04T01:23:57;15.67;;;7.07;;
20743;SDS011;56303;52.160;-0.428;2022-12-04T01:26:25;10.60;;;5.97;;
20743;SDS011;56303;52.160;-0.428;2022-12-04T01:28:52;12.47;;;6.13;;
20743;SDS011;56303;52.160;-0.428;2022-12-04T01:31:20;9.77;;;6.33;;
20743;SDS011;56303;52.160;-0.428;2022-12-04T01:33:48;14.50;;;6.67;;
20743;SDS011;56303;52.160;-0.428;2022-12-04T01:36:16;13.00;;;6.43;;
20743;SDS011;56303;52.160;-0.428;2022-12-04T01:38:46;13.17;;;6.90;;
20743;SDS011;56303;52.160;-0.428;2022-12-04T01:41:13;11.70;;;7.90;;
20743;SDS011;56303;52.160;-0.428;2022-12-04T01:43:41;10.67;;;7.00;;
20743;SDS011;56303;52.160;-0.428;2022-12-04T01:46:09;11.83;;;6.97;;
20743;SDS011;56303;52.160;-0.428;2022-12-04T01:48:42;14.40;;;8.43;;
20743;SDS011;56303;52.160;-0.428;2022-12-04T01:51:22;12.63;;;7.47;;
20743;SDS011;56303;52.160;-0.428;2022-12-04T01:53:55;14.23;;;7.70;;
20743;SDS011;56303;52.160;-0.428;2022-12-04T01:56:29;16.83;;;7.63;;
20743;SDS011;56303;52.160;-0.428;2022-12-04T01:59:09;14.20;;;7.53;;
20743;SDS011;56303;52.160;-0.428;2022-12-04T02:01:49;16.00;;;8.40;;
20743;SDS011;56303;52.160;-0.428;2022-12-04T02:04:22;12.70;;;7.60;;
20743;SDS011;56303;52.160;-0.428;2022-12-04T02:06:49;13.67;;;7.20;;
20743;SDS011;56303;52.160;-0.428;2022-12-04T02:09:16;12.27;;;7.90;;
20743;SDS011;56303;52.160;-0.428;2022-12-04T02:11:56;11.10;;;7.47;;
20743;SDS011;56303;52.160;-0.428;2022-12-04T02:14:39;13.50;;;7.70;;
20743;SDS011;56303;52.160;-0.428;2022-12-04T02:17:24;14.70;;;8.23;;
20743;SDS011;56303;52.160;-0.428;2022-12-04T02:25:37;11.73;;;7.07;;
20743;SDS011;56303;52.160;-0.428;2022-12-04T02:28:19;12.87;;;8.10;;
20743;SDS011;56303;52.160;-0.428;2022-12-04T02:30:57;11.50;;;7.30;;
20743;SDS011;56303;52.160;-0.428;2022-12-04T02:33:28;15.37;;;8.00;;
20743;SDS011;56303;52.160;-0.428;2022-12-04T02:36:08;11.93;;;8.00;;
20743;SDS011;56303;52.160;-0.428;2022-12-04T02:38:41;10.87;;;7.17;;
20743;SDS011;56303;52.160;-0.428;2022-12-04T02:44:33;14.87;;;8.57;;
20743;SDS011;56303;52.160;-0.428;2022-12-04T02:47:06;14.43;;;9.07;;
20743;SDS011;56303;52.160;-0.428;2022-12-04T02:49:39;13.80;;;8.83;;
20743;SDS011;56303;52.160;-0.428;2022-12-04T02:52:12;16.10;;;8.90;;
20743;SDS011;56303;52.160;-0.428;2022-12-04T02:54:48;18.80;;;9.60;;
20743;SDS011;56303;52.160;-0.428;2022-12-04T02:57:19;16.07;;;10.33;;
20743;SDS011;56303;52.160;-0.428;2022-12-04T02:59:51;15.93;;;9.60;;
20743;SDS011;56303;52.160;-0.428;2022-12-04T03:02:22;17.40;;;10.73;;
20743;SDS011;56303;52.160;-0.428;2022-12-04T03:04:55;13.73;;;8.87;;
20743;SDS011;56303;52.160;-0.428;2022-12-04T03:07:33;17.80;;;11.17;;
20743;SDS011;56303;52.160;-0.428;2022-12-04T03:10:23;16.27;;;9.70;;
20743;SDS011;56303;52.160;-0.428;2022-12-04T03:13:08;17.17;;;10.10;;
20743;SDS011;56303;52.160;-0.428;2022-12-04T03:15:44;16.27;;;10.60;;
20743;SDS011;56303;52.160;-0.428;2022-12-04T03:18:22;18.53;;;11.13;;
20743;SDS011;56303;52.160;-0.428;2022-12-04T03:20:55;17.77;;;10.67;;
20743;SDS011;56303;52.160;-0.428;2022-12-04T03:23:29;20.43;;;13.13;;
20743;SDS011;56303;52.160;-0.428;2022-12-04T03:26:02;16.47;;;11.50;;
20743;SDS011;56303;52.160;-0.428;2022-12-04T03:28:52;18.67;;;11.70;;
20743;SDS011;56303;52.160;-0.428;2022-12-04T03:31:34;19.57;;;12.80;;
20743;SDS011;56303;52.160;-0.428;2022-12-04T03:34:14;19.27;;;11.77;;
20743;SDS011;56303;52.160;-0.428;2022-12-04T03:36:58;18.13;;;12.20;;
20743;SDS011;56303;52.160;-0.428;2022-12-04T03:39:35;18.27;;;11.30;;
20743;SDS011;56303;52.160;-0.428;2022-12-04T03:42:12;14.53;;;11.67;;
20743;SDS011;56303;52.160;-0.428;2022-12-04T03:47:48;17.00;;;11.10;;
20743;SDS011;56303;52.160;-0.428;2022-12-04T03:50:37;19.67;;;12.00;;
20743;SDS011;56303;52.160;-0.428;2022-12-04T03:53:12;20.27;;;11.67;;
20743;SDS011;56303;52.160;-0.428;2022-12-04T03:55:48;17.87;;;12.67;;
20743;SDS011;56303;52.160;-0.428;2022-12-04T03:58:28;17.87;;;11.13;;
20743;SDS011;56303;52.160;-0.428;2022-12-04T04:00:57;16.63;;;11.67;;
20743;SDS011;56303;52.160;-0.428;2022-12-04T04:03:27;16.00;;;11.33;;
20743;SDS011;56303;52.160;-0.428;2022-12-04T04:06:01;18.00;;;11.47;;
20743;SDS011;56303;52.160;-0.428;2022-12-04T04:08:35;16.87;;;11.63;;
20743;SDS011;56303;52.160;-0.428;2022-12-04T04:11:09;16.43;;;12.03;;
20743;SDS011;56303;52.160;-0.428;2022-12-04T04:13:58;17.07;;;12.00;;
20743;SDS011;56303;52.160;-0.428;2022-12-04T04:16:56;19.70;;;12.33;;
20743;SDS011;56303;52.160;-0.428;2022-12-04T04:19:47;19.67;;;12.37;;
20743;SDS011;56303;52.160;-0.428;2022-12-04T04:22:38;19.70;;;12.80;;
20743;SDS011;56303;52.160;-0.428;2022-12-04T04:25:24;17.60;;;12.80;;
20743;SDS011;56303;52.160;-0.428;2022-12-04T04:27:54;23.93;;;12.77;;
20743;SDS011;56303;52.160;-0.428;2022-12-04T04:30:22;19.00;;;11.80;;
20743;SDS011;56303;52.160;-0.428;2022-12-04T04:33:04;16.07;;;11.03;;
20743;SDS011;56303;52.160;-0.428;2022-12-04T04:35:47;17.17;;;11.23;;
20743;SDS011;56303;52.160;-0.428;2022-12-04T04:38:38;16.37;;;11.07;;
20743;SDS011;56303;52.160;-0.428;2022-12-04T04:46:28;18.70;;;11.97;;
20743;SDS011;56303;52.160;-0.428;2022-12-04T04:48:59;18.57;;;12.27;;
20743;SDS011;56303;52.160;-0.428;2022-12-04T04:51:29;20.07;;;12.73;;
20743;SDS011;56303;52.160;-0.428;2022-12-04T04:54:00;20.77;;;13.43;;
20743;SDS011;56303;52.160;-0.428;2022-12-04T04:56:31;16.87;;;11.87;;
20743;SDS011;56303;52.160;-0.428;2022-12-04T04:59:09;19.73;;;12.10;;
20743;SDS011;56303;52.160;-0.428;2022-12-04T05:01:37;18.20;;;12.63;;
20743;SDS011;56303;52.160;-0.428;2022-12-04T05:04:05;18.10;;;13.07;;
20743;SDS011;56303;52.160;-0.428;2022-12-04T05:06:32;17.27;;;10.77;;
20743;SDS011;56303;52.160;-0.428;2022-12-04T05:08:59;17.93;;;11.60;;
20743;SDS011;56303;52.160;-0.428;2022-12-04T05:11:26;16.87;;;11.73;;
20743;SDS011;56303;52.160;-0.428;2022-12-04T05:13:53;18.03;;;12.30;;
20743;SDS011;56303;52.160;-0.428;2022-12-04T05:16:20;18.90;;;11.70;;
20743;SDS011;56303;52.160;-0.428;2022-12-04T05:18:47;17.13;;;11.37;;
20743;SDS011;56303;52.160;-0.428;2022-12-04T05:21:34;19.10;;;12.13;;
20743;SDS011;56303;52.160;-0.428;2022-12-04T05:24:00;20.73;;;12.70;;
20743;SDS011;56303;52.160;-0.428;2022-12-04T05:26:27;18.10;;;11.60;;
20743;SDS011;56303;52.160;-0.428;2022-12-04T05:28:54;20.57;;;11.90;;
20743;SDS011;56303;52.160;-0.428;2022-12-04T05:31:21;16.90;;;11.87;;
20743;SDS011;56303;52.160;-0.428;2022-12-04T05:33:48;19.27;;;13.17;;
20743;SDS011;56303;52.160;-0.428;2022-12-04T05:36:14;17.07;;;10.80;;
20743;SDS011;56303;52.160;-0.428;2022-12-04T05:38:41;20.67;;;12.67;;
20743;SDS011;56303;52.160;-0.428;2022-12-04T05:41:08;19.13;;;12.20;;
20743;SDS011;56303;52.160;-0.428;2022-12-04T05:43:35;20.53;;;11.83;;
20743;SDS011;56303;52.160;-0.428;2022-12-04T05:46:03;14.70;;;10.97;;
20743;SDS011;56303;52.160;-0.428;2022-12-04T05:48:32;19.43;;;11.13;;
20743;SDS011;56303;52.160;-0.428;2022-12-04T05:51:07;17.50;;;11.43;;
20743;SDS011;56303;52.160;-0.428;2022-12-04T05:53:35;16.77;;;11.37;;
20743;SDS011;56303;52.160;-0.428;2022-12-04T05:56:03;18.17;;;11.47;;
20743;SDS011;56303;52.160;-0.428;2022-12-04T05:58:33;14.73;;;10.07;;
20743;SDS011;56303;52.160;-0.428;2022-12-04T06:01:11;18.77;;;11.43;;
20743;SDS011;56303;52.160;-0.428;2022-12-04T06:03:41;19.47;;;11.20;;
20743;SDS011;56303;52.160;-0.428;2022-12-04T06:06:41;18.93;;;10.83;;
20743;SDS011;56303;52.160;-0.428;2022-12-04T06:09:01;18.33;;;10.70;;
20743;SDS011;56303;52.160;-0.428;2022-12-04T06:11:29;18.77;;;9.83;;
20743;SDS011;56303;52.160;-0.428;2022-12-04T06:13:59;15.00;;;9.70;;
20743;SDS011;56303;52.160;-0.428;2022-12-04T06:16:28;17.80;;;11.10;;
20743;SDS011;56303;52.160;-0.428;2022-12-04T06:18:58;18.63;;;11.03;;
20743;SDS011;56303;52.160;-0.428;2022-12-04T06:21:28;14.83;;;10.77;;
20743;SDS011;56303;52.160;-0.428;2022-12-04T06:23:57;16.37;;;10.07;;
20743;SDS011;56303;52.160;-0.428;2022-12-04T06:26:24;15.77;;;9.80;;
20743;SDS011;56303;52.160;-0.428;2022-12-04T06:28:54;14.83;;;10.20;;
20743;SDS011;56303;52.160;-0.428;2022-12-04T06:31:24;17.40;;;10.63;;
20743;SDS011;56303;52.160;-0.428;2022-12-04T06:33:52;15.97;;;10.07;;
20743;SDS011;56303;52.160;-0.428;2022-12-04T06:36:20;17.47;;;10.60;;
20743;SDS011;56303;52.160;-0.428;2022-12-04T06:38:48;18.33;;;10.40;;
20743;SDS011;56303;52.160;-0.428;2022-12-04T06:41:17;13.70;;;9.10;;
20743;SDS011;56303;52.160;-0.428;2022-12-04T06:43:46;19.57;;;9.67;;
20743;SDS011;56303;52.160;-0.428;2022-12-04T06:46:15;18.93;;;10.20;;
20743;SDS011;56303;52.160;-0.428;2022-12-04T06:48:44;21.60;;;10.27;;
20743;SDS011;56303;52.160;-0.428;2022-12-04T06:51:16;15.27;;;9.23;;
20743;SDS011;56303;52.160;-0.428;2022-12-04T06:53:56;17.20;;;9.93;;
20743;SDS011;56303;52.160;-0.428;2022-12-04T06:56:25;14.70;;;9.40;;
20743;SDS011;56303;52.160;-0.428;2022-12-04T06:58:54;17.10;;;11.13;;
20743;SDS011;56303;52.160;-0.428;2022-12-04T07:01:24;16.67;;;10.10;;
20743;SDS011;56303;52.160;-0.428;2022-12-04T07:03:52;13.77;;;9.50;;
20743;SDS011;56303;52.160;-0.428;2022-12-04T07:06:24;16.03;;;11.17;;
20743;SDS011;56303;52.160;-0.428;2022-12-04T07:08:57;17.90;;;10.50;;
20743;SDS011;56303;52.160;-0.428;2022-12-04T07:11:25;13.90;;;9.40;;
20743;SDS011;56303;52.160;-0.428;2022-12-04T07:13:53;13.97;;;9.80;;
20743;SDS011;56303;52.160;-0.428;2022-12-04T07:16:20;14.37;;;9.73;;
20743;SDS011;56303;52.160;-0.428;2022-12-04T07:18:49;14.67;;;9.37;;
20743;SDS011;56303;52.160;-0.428;2022-12-04T07:21:19;15.57;;;10.10;;
20743;SDS011;56303;52.160;-0.428;2022-12-04T07:23:48;16.23;;;10.07;;
20743;SDS011;56303;52.160;-0.428;2022-12-04T07:26:16;15.30;;;9.77;;
20743;SDS011;56303;52.160;-0.428;2022-12-04T07:28:44;14.33;;;10.20;;
20743;SDS011;56303;52.160;-0.428;2022-12-04T07:31:13;15.83;;;10.17;;
20743;SDS011;56303;52.160;-0.428;2022-12-04T07:33:42;15.50;;;9.93;;
20743;SDS011;56303;52.160;-0.428;2022-12-04T07:36:10;15.07;;;10.57;;
20743;SDS011;56303;52.160;-0.428;2022-12-04T07:38:39;16.60;;;10.07;;
20743;SDS011;56303;52.160;-0.428;2022-12-04T07:41:07;15.30;;;10.47;;
20743;SDS011;56303;52.160;-0.428;2022-12-04T07:43:36;17.60;;;11.63;;
20743;SDS011;56303;52.160;-0.428;2022-12-04T07:46:04;18.60;;;11.27;;
20743;SDS011;56303;52.160;-0.428;2022-12-04T07:48:33;15.70;;;10.97;;
20743;SDS011;56303;52.160;-0.428;2022-12-04T07:51:11;17.97;;;13.33;;
20743;SDS011;56303;52.160;-0.428;2022-12-04T07:53:40;19.40;;;13.20;;
20743;SDS011;56303;52.160;-0.428;2022-12-04T07:56:07;18.83;;;11.63;;
20743;SDS011;56303;52.160;-0.428;2022-12-04T07:58:35;19.90;;;12.20;;
20743;SDS011;56303;52.160;-0.428;2022-12-04T08:01:12;19.83;;;13.90;;
20743;SDS011;56303;52.160;-0.428;2022-12-04T08:03:42;22.50;;;13.67;;
20743;SDS011;56303;52.160;-0.428;2022-12-04T08:06:14;20.37;;;12.90;;
20743;SDS011;56303;52.160;-0.428;2022-12-04T08:08:45;21.03;;;14.53;;
20743;SDS011;56303;52.160;-0.428;2022-12-04T08:11:13;24.60;;;14.77;;
20743;SDS011;56303;52.160;-0.428;2022-12-04T08:13:41;20.27;;;13.43;;
20743;SDS011;56303;52.160;-0.428;2022-12-04T08:16:09;20.50;;;13.80;;
20743;SDS011;56303;52.160;-0.428;2022-12-04T08:18:37;22.47;;;14.03;;
20743;SDS011;56303;52.160;-0.428;2022-12-04T08:21:09;22.70;;;15.33;;
20743;SDS011;56303;52.160;-0.428;2022-12-04T08:23:38;21.93;;;14.43;;
20743;SDS011;56303;52.160;-0.428;2022-12-04T08:26:06;18.80;;;14.03;;
20743;SDS011;56303;52.160;-0.428;2022-12-04T08:28:34;26.57;;;16.90;;
20743;SDS011;56303;52.160;-0.428;2022-12-04T08:31:10;21.93;;;15.93;;
20743;SDS011;56303;52.160;-0.428;2022-12-04T08:33:39;27.80;;;17.57;;
20743;SDS011;56303;52.160;-0.428;2022-12-04T08:36:08;29.03;;;18.17;;
20743;SDS011;56303;52.160;-0.428;2022-12-04T08:38:36;24.30;;;17.00;;
20743;SDS011;56303;52.160;-0.428;2022-12-04T08:41:04;24.70;;;15.40;;
20743;SDS011;56303;52.160;-0.428;2022-12-04T08:43:33;22.57;;;16.33;;
20743;SDS011;56303;52.160;-0.428;2022-12-04T08:46:01;25.03;;;16.93;;
20743;SDS011;56303;52.160;-0.428;2022-12-04T08:48:33;27.50;;;18.33;;
20743;SDS011;56303;52.160;-0.428;2022-12-04T08:51:00;29.67;;;18.67;;
20743;SDS011;56303;52.160;-0.428;2022-12-04T08:53:29;24.97;;;17.13;;
20743;SDS011;56303;52.160;-0.428;2022-12-04T08:55:59;25.63;;;17.90;;
20743;SDS011;56303;52.160;-0.428;2022-12-04T08:58:26;28.20;;;18.83;;
20743;SDS011;56303;52.160;-0.428;2022-12-04T09:00:53;30.57;;;19.93;;
20743;SDS011;56303;52.160;-0.428;2022-12-04T09:03:21;24.60;;;17.83;;
20743;SDS011;56303;52.160;-0.428;2022-12-04T09:05:57;27.47;;;19.23;;
20743;SDS011;56303;52.160;-0.428;2022-12-04T09:08:25;28.33;;;19.77;;
20743;SDS011;56303;52.160;-0.428;2022-12-04T09:10:52;25.37;;;19.50;;
20743;SDS011;56303;52.160;-0.428;2022-12-04T09:13:19;29.43;;;20.40;;
20743;SDS011;56303;52.160;-0.428;2022-12-04T09:15:46;27.67;;;18.97;;
20743;SDS011;56303;52.160;-0.428;2022-12-04T09:18:13;25.70;;;19.60;;
20743;SDS011;56303;52.160;-0.428;2022-12-04T09:20:40;28.50;;;20.27;;
20743;SDS011;56303;52.160;-0.428;2022-12-04T09:23:06;27.70;;;20.20;;
20743;SDS011;56303;52.160;-0.428;2022-12-04T09:25:34;27.90;;;20.83;;
20743;SDS011;56303;52.160;-0.428;2022-12-04T09:28:02;28.70;;;21.03;;
20743;SDS011;56303;52.160;-0.428;2022-12-04T09:30:29;29.23;;;19.77;;
20743;SDS011;56303;52.160;-0.428;2022-12-04T09:32:56;25.97;;;19.83;;
20743;SDS011;56303;52.160;-0.428;2022-12-04T09:35:23;28.37;;;20.70;;
20743;SDS011;56303;52.160;-0.428;2022-12-04T09:37:50;29.77;;;20.73;;
20743;SDS011;56303;52.160;-0.428;2022-12-04T09:40:43;26.47;;;20.40;;
20743;SDS011;56303;52.160;-0.428;2022-12-04T09:45:56;27.90;;;19.93;;
20743;SDS011;56303;52.160;-0.428;2022-12-04T09:48:31;26.93;;;19.93;;
20743;SDS011;56303;52.160;-0.428;2022-12-04T09:51:02;26.57;;;19.40;;
20743;SDS011;56303;52.160;-0.428;2022-12-04T09:53:37;29.63;;;20.40;;
20743;SDS011;56303;52.160;-0.428;2022-12-04T09:56:11;31.03;;;20.80;;
20743;SDS011;56303;52.160;-0.428;2022-12-04T10:01:19;32.50;;;21.80;;
20743;SDS011;56303;52.160;-0.428;2022-12-04T10:03:47;26.23;;;21.60;;
20743;SDS011;56303;52.160;-0.428;2022-12-04T10:06:25;29.67;;;21.53;;
20743;SDS011;56303;52.160;-0.428;2022-12-04T10:09:00;28.70;;;20.03;;
20743;SDS011;56303;52.160;-0.428;2022-12-04T10:17:33;29.17;;;21.10;;
20743;SDS011;56303;52.160;-0.428;2022-12-04T10:20:20;30.63;;;21.37;;
20743;SDS011;56303;52.160;-0.428;2022-12-04T10:25:58;29.53;;;21.27;;
20743;SDS011;56303;52.160;-0.428;2022-12-04T10:31:00;29.20;;;20.70;;
20743;SDS011;56303;52.160;-0.428;2022-12-04T10:33:45;27.63;;;20.93;;
20743;SDS011;56303;52.160;-0.428;2022-12-04T10:36:17;28.70;;;20.33;;
20743;SDS011;56303;52.160;-0.428;2022-12-04T10:41:43;27.73;;;21.07;;
20743;SDS011;56303;52.160;-0.428;2022-12-04T10:44:12;32.63;;;22.57;;
20743;SDS011;56303;52.160;-0.428;2022-12-04T10:46:41;30.13;;;20.73;;
20743;SDS011;56303;52.160;-0.428;2022-12-04T10:49:18;31.57;;;22.57;;
20743;SDS011;56303;52.160;-0.428;2022-12-04T10:51:49;29.67;;;22.90;;
20743;SDS011;56303;52.160;-0.428;2022-12-04T10:57:01;29.03;;;22.37;;
20743;SDS011;56303;52.160;-0.428;2022-12-04T10:59:33;27.33;;;20.20;;
20743;SDS011;56303;52.160;-0.428;2022-12-04T11:02:11;31.93;;;23.87;;
20743;SDS011;56303;52.160;-0.428;2022-12-04T11:07:35;29.63;;;22.87;;
20743;SDS011;56303;52.160;-0.428;2022-12-04T11:12:55;32.83;;;23.17;;
20743;SDS011;56303;52.160;-0.428;2022-12-04T11:15:27;33.53;;;24.67;;
20743;SDS011;56303;52.160;-0.428;2022-12-04T11:18:05;33.90;;;22.83;;
20743;SDS011;56303;52.160;-0.428;2022-12-04T11:20:55;32.10;;;23.57;;
20743;SDS011;56303;52.160;-0.428;2022-12-04T11:23:24;32.77;;;23.97;;
20743;SDS011;56303;52.160;-0.428;2022-12-04T11:25:55;32.20;;;24.23;;
20743;SDS011;56303;52.160;-0.428;2022-12-04T11:28:30;30.53;;;23.27;;
20743;SDS011;56303;52.160;-0.428;2022-12-04T11:31:08;34.27;;;24.43;;
20743;SDS011;56303;52.160;-0.428;2022-12-04T11:33:48;34.80;;;24.40;;
20743;SDS011;56303;52.160;-0.428;2022-12-04T11:38:53;30.97;;;21.93;;
20743;SDS011;56303;52.160;-0.428;2022-12-04T11:41:43;32.47;;;22.00;;
20743;SDS011;56303;52.160;-0.428;2022-12-04T11:44:24;28.17;;;22.60;;
20743;SDS011;56303;52.160;-0.428;2022-12-04T11:46:53;29.97;;;21.03;;
20743;SDS011;56303;52.160;-0.428;2022-12-04T11:49:22;29.10;;;21.73;;
20743;SDS011;56303;52.160;-0.428;2022-12-04T12:00:15;31.20;;;22.00;;
20743;SDS011;56303;52.160;-0.428;2022-12-04T12:19:28;29.80;;;21.90;;
20743;SDS011;56303;52.160;-0.428;2022-12-04T12:24:51;27.03;;;20.67;;
20743;SDS011;56303;52.160;-0.428;2022-12-04T12:30:31;25.43;;;18.80;;
20743;SDS011;56303;52.160;-0.428;2022-12-04T12:33:33;24.33;;;18.20;;
20743;SDS011;56303;52.160;-0.428;2022-12-04T12:36:09;25.80;;;18.73;;
20743;SDS011;56303;52.160;-0.428;2022-12-04T12:38:39;24.87;;;18.30;;
20743;SDS011;56303;52.160;-0.428;2022-12-04T12:41:21;31.20;;;21.63;;
20743;SDS011;56303;52.160;-0.428;2022-12-04T12:43:54;26.70;;;21.23;;
20743;SDS011;56303;52.160;-0.428;2022-12-04T12:46:31;24.30;;;18.57;;
20743;SDS011;56303;52.160;-0.428;2022-12-04T12:54:45;26.33;;;18.90;;
20743;SDS011;56303;52.160;-0.428;2022-12-04T13:00:04;24.97;;;18.13;;
20743;SDS011;56303;52.160;-0.428;2022-12-04T13:05:20;25.83;;;18.33;;
20743;SDS011;56303;52.160;-0.428;2022-12-04T13:11:27;25.23;;;17.73;;
20743;SDS011;56303;52.160;-0.428;2022-12-04T13:14:02;25.30;;;18.33;;
20743;SDS011;56303;52.160;-0.428;2022-12-04T13:27:07;24.03;;;17.53;;
20743;SDS011;56303;52.160;-0.428;2022-12-04T13:40:41;22.17;;;16.40;;
20743;SDS011;56303;52.160;-0.428;2022-12-04T13:46:38;21.40;;;16.50;;
20743;SDS011;56303;52.160;-0.428;2022-12-04T13:51:44;26.20;;;16.07;;
20743;SDS011;56303;52.160;-0.428;2022-12-04T13:56:40;19.27;;;15.03;;
20743;SDS011;56303;52.160;-0.428;2022-12-04T14:01:54;20.87;;;15.93;;
20743;SDS011;56303;52.160;-0.428;2022-12-04T14:07:30;20.37;;;14.60;;
20743;SDS011;56303;52.160;-0.428;2022-12-04T14:10:01;21.73;;;15.13;;
20743;SDS011;56303;52.160;-0.428;2022-12-04T14:12:48;22.83;;;15.53;;
20743;SDS011;56303;52.160;-0.428;2022-12-04T14:15:28;24.07;;;15.73;;
20743;SDS011;56303;52.160;-0.428;2022-12-04T14:20:37;18.73;;;13.23;;
20743;SDS011;56303;52.160;-0.428;2022-12-04T14:25:40;18.83;;;12.93;;
20743;SDS011;56303;52.160;-0.428;2022-12-04T14:28:23;17.50;;;13.57;;
20743;SDS011;56303;52.160;-0.428;2022-12-04T14:36:52;18.20;;;13.50;;
20743;SDS011;56303;52.160;-0.428;2022-12-04T14:39:31;23.37;;;14.03;;
20743;SDS011;56303;52.160;-0.428;2022-12-04T14:42:26;26.17;;;16.70;;
20743;SDS011;56303;52.160;-0.428;2022-12-04T14:44:58;23.50;;;16.37;;
20743;SDS011;56303;52.160;-0.428;2022-12-04T14:50:50;17.47;;;13.23;;
20743;SDS011;56303;52.160;-0.428;2022-12-04T14:53:32;16.37;;;13.40;;
20743;SDS011;56303;52.160;-0.428;2022-12-04T14:56:19;18.90;;;12.97;;
20743;SDS011;56303;52.160;-0.428;2022-12-04T14:58:51;20.20;;;14.27;;
20743;SDS011;56303;52.160;-0.428;2022-12-04T15:03:55;15.53;;;12.23;;
20743;SDS011;56303;52.160;-0.428;2022-12-04T15:06:29;18.07;;;13.57;;
20743;SDS011;56303;52.160;-0.428;2022-12-04T15:08:59;18.43;;;14.73;;
20743;SDS011;56303;52.160;-0.428;2022-12-04T15:11:53;18.13;;;13.47;;
20743;SDS011;56303;52.160;-0.428;2022-12-04T15:14:44;16.23;;;12.43;;
20743;SDS011;56303;52.160;-0.428;2022-12-04T15:17:13;17.13;;;13.90;;
20743;SDS011;56303;52.160;-0.428;2022-12-04T15:19:43;20.83;;;13.97;;
20743;SDS011;56303;52.160;-0.428;2022-12-04T15:22:18;18.43;;;14.53;;
20743;SDS011;56303;52.160;-0.428;2022-12-04T15:24:53;23.57;;;15.30;;
20743;SDS011;56303;52.160;-0.428;2022-12-04T15:27:23;18.70;;;14.43;;
20743;SDS011;56303;52.160;-0.428;2022-12-04T15:29:58;18.03;;;14.30;;
20743;SDS011;56303;52.160;-0.428;2022-12-04T15:32:27;17.00;;;12.97;;
20743;SDS011;56303;52.160;-0.428;2022-12-04T15:34:57;23.00;;;17.53;;
20743;SDS011;56303;52.160;-0.428;2022-12-04T15:37:28;18.13;;;14.83;;
20743;SDS011;56303;52.160;-0.428;2022-12-04T15:39:56;22.57;;;13.33;;
20743;SDS011;56303;52.160;-0.428;2022-12-04T15:42:28;17.73;;;14.63;;
20743;SDS011;56303;52.160;-0.428;2022-12-04T15:44:59;18.77;;;14.73;;
20743;SDS011;56303;52.160;-0.428;2022-12-04T15:47:37;20.00;;;15.67;;
20743;SDS011;56303;52.160;-0.428;2022-12-04T15:50:07;21.27;;;14.17;;
20743;SDS011;56303;52.160;-0.428;2022-12-04T15:55:38;20.40;;;14.67;;
20743;SDS011;56303;52.160;-0.428;2022-12-04T15:58:19;18.50;;;14.40;;
20743;SDS011;56303;52.160;-0.428;2022-12-04T16:00:52;20.03;;;14.93;;
20743;SDS011;56303;52.160;-0.428;2022-12-04T16:03:31;19.73;;;16.30;;
20743;SDS011;56303;52.160;-0.428;2022-12-04T16:06:27;19.77;;;14.53;;
20743;SDS011;56303;52.160;-0.428;2022-12-04T16:08:59;19.40;;;14.80;;
20743;SDS011;56303;52.160;-0.428;2022-12-04T16:11:42;19.13;;;15.03;;
20743;SDS011;56303;52.160;-0.428;2022-12-04T16:16:42;19.80;;;14.27;;
20743;SDS011;56303;52.160;-0.428;2022-12-04T16:19:29;16.07;;;13.07;;
20743;SDS011;56303;52.160;-0.428;2022-12-04T16:21:59;20.53;;;14.60;;
20743;SDS011;56303;52.160;-0.428;2022-12-04T16:24:28;21.07;;;15.47;;
20743;SDS011;56303;52.160;-0.428;2022-12-04T16:26:55;19.83;;;16.43;;
20743;SDS011;56303;52.160;-0.428;2022-12-04T16:29:23;19.53;;;15.47;;
20743;SDS011;56303;52.160;-0.428;2022-12-04T16:31:50;19.97;;;13.53;;
20743;SDS011;56303;52.160;-0.428;2022-12-04T16:34:17;17.03;;;14.40;;
20743;SDS011;56303;52.160;-0.428;2022-12-04T16:36:44;19.37;;;15.20;;
20743;SDS011;56303;52.160;-0.428;2022-12-04T16:39:11;18.93;;;14.73;;
20743;SDS011;56303;52.160;-0.428;2022-12-04T16:41:38;17.10;;;14.37;;
20743;SDS011;56303;52.160;-0.428;2022-12-04T16:44:08;20.13;;;15.93;;
20743;SDS011;56303;52.160;-0.428;2022-12-04T16:46:39;16.13;;;13.53;;
20743;SDS011;56303;52.160;-0.428;2022-12-04T16:49:07;17.93;;;13.70;;
20743;SDS011;56303;52.160;-0.428;2022-12-04T16:51:39;17.47;;;13.60;;
20743;SDS011;56303;52.160;-0.428;2022-12-04T16:54:11;18.93;;;14.03;;
20743;SDS011;56303;52.160;-0.428;2022-12-04T16:56:39;15.63;;;13.70;;
20743;SDS011;56303;52.160;-0.428;2022-12-04T16:59:06;16.33;;;13.00;;
20743;SDS011;56303;52.160;-0.428;2022-12-04T17:01:42;14.63;;;12.80;;
20743;SDS011;56303;52.160;-0.428;2022-12-04T17:04:12;16.10;;;12.40;;
20743;SDS011;56303;52.160;-0.428;2022-12-04T17:06:39;16.83;;;12.33;;
20743;SDS011;56303;52.160;-0.428;2022-12-04T17:09:06;16.57;;;11.80;;
20743;SDS011;56303;52.160;-0.428;2022-12-04T17:11:33;15.23;;;11.43;;
20743;SDS011;56303;52.160;-0.428;2022-12-04T17:14:01;15.13;;;10.73;;